Time;durP1;ratioP1;P1;durP2;ratioP2;P2;SDS_P1;SDS_P2;PMS_P1;PMS_P2;Temp;Humidity;BMP_temperature;BMP_pressure;BME280_temperature;BME280_humidity;BME280_pressure;Samples;Min_cycle;Max_cycle;Signal;HPM_P1;HPM_P2
2023/09/04 00:02:24;;;;;;;6.25;4.65;;;;;;;19.53;100.00;97238.13;6214115;23;20004;-82
2023/09/04 00:04:51;;;;;;;7.03;4.60;;;;;;;19.24;100.00;97239.91;6242180;23;20009;-82
2023/09/04 00:07:23;;;;;;;8.93;4.78;;;;;;;19.31;100.00;97234.63;6190408;23;20399;-82
2023/09/04 00:09:56;;;;;;;6.50;4.45;;;;;;;19.32;100.00;97241.63;6189715;23;20014;-82
2023/09/04 00:12:29;;;;;;;6.03;4.47;;;;;;;19.25;100.00;97246.09;6189215;23;20011;-82
2023/09/04 00:14:55;;;;;;;6.30;4.40;;;;;;;19.30;100.00;97241.00;6215622;23;20031;-82
2023/09/04 00:17:20;;;;;;;9.52;4.45;;;;;;;19.29;100.00;97242.00;6190600;23;20062;-82
2023/09/04 00:19:51;;;;;;;7.68;4.35;;;;;;;19.00;100.00;97242.91;6190032;23;20023;-82
2023/09/04 00:22:17;;;;;;;6.28;4.53;;;;;;;19.03;100.00;97238.03;6190366;23;20008;-83
2023/09/04 00:24:42;;;;;;;7.60;5.20;;;;;;;19.13;100.00;97244.91;6189979;23;19996;-82
2023/09/04 00:27:08;;;;;;;7.63;4.53;;;;;;;19.16;100.00;97239.22;6188758;23;20053;-82
2023/09/04 00:29:33;;;;;;;7.68;4.68;;;;;;;19.21;100.00;97236.78;6191335;23;20007;-82
2023/09/04 00:32:02;;;;;;;6.03;4.18;;;;;;;19.13;100.00;97235.06;6195138;23;20022;-82
2023/09/04 00:34:28;;;;;;;7.70;5.00;;;;;;;19.27;100.00;97233.38;6189871;23;20012;-82
2023/09/04 00:36:54;;;;;;;5.70;3.95;;;;;;;18.99;100.00;97228.75;6188734;23;20078;-82
2023/09/04 00:39:19;;;;;;;6.63;4.38;;;;;;;18.88;100.00;97231.94;6189376;23;20031;-82
2023/09/04 00:41:46;;;;;;;6.53;4.45;;;;;;;18.97;100.00;97230.78;6213741;23;20115;-82
2023/09/04 00:44:12;;;;;;;6.97;4.65;;;;;;;18.95;100.00;97216.84;6190214;23;20332;-82
2023/09/04 00:46:38;;;;;;;7.07;4.32;;;;;;;18.87;100.00;97219.59;6189861;23;20042;-82
2023/09/04 00:49:04;;;;;;;7.63;4.65;;;;;;;18.67;100.00;97218.50;6189887;23;20004;-82
2023/09/04 00:51:29;;;;;;;7.85;5.55;;;;;;;18.52;100.00;97216.69;6214795;23;20007;-83
2023/09/04 00:53:55;;;;;;;7.95;5.00;;;;;;;18.38;100.00;97212.19;6215610;23;20068;-82
2023/09/04 00:56:21;;;;;;;7.38;4.55;;;;;;;18.73;100.00;97212.47;6189084;23;20053;-82
2023/09/04 00:58:47;;;;;;;6.53;4.88;;;;;;;18.64;100.00;97214.34;6189071;23;20344;-82
2023/09/04 01:01:18;;;;;;;6.90;4.77;;;;;;;18.43;100.00;97220.44;6213036;23;20012;-83
2023/09/04 01:03:43;;;;;;;6.67;4.70;;;;;;;18.43;100.00;97211.63;6188396;23;20008;-82
2023/09/04 01:06:09;;;;;;;7.90;5.22;;;;;;;18.52;100.00;97214.03;6189950;23;20000;-82
2023/09/04 01:08:36;;;;;;;7.50;5.00;;;;;;;18.73;100.00;97209.81;6189213;23;20008;-82
2023/09/04 01:11:11;;;;;;;9.90;5.30;;;;;;;18.51;100.00;97212.38;6212572;23;20008;-82
2023/09/04 01:13:53;;;;;;;7.63;4.88;;;;;;;18.27;100.00;97210.81;6190311;23;20004;-82
2023/09/04 01:16:20;;;;;;;7.63;5.43;;;;;;;18.44;100.00;97206.13;6214967;23;20000;-83
2023/09/04 01:18:47;;;;;;;7.53;4.87;;;;;;;18.36;100.00;97206.22;6189019;23;20418;-82
2023/09/04 01:21:13;;;;;;;7.53;5.23;;;;;;;18.41;100.00;97209.19;6188271;23;20004;-83
2023/09/04 01:23:39;;;;;;;7.03;5.07;;;;;;;18.21;100.00;97216.03;6239699;23;20015;-82
2023/09/04 01:26:15;;;;;;;6.60;4.60;;;;;;;18.14;100.00;97211.47;6189102;23;20061;-83
2023/09/04 01:28:53;;;;;;;7.97;5.13;;;;;;;18.10;100.00;97215.47;6189453;23;20090;-82
2023/09/04 01:31:26;;;;;;;7.47;5.63;;;;;;;18.03;100.00;97209.22;6213263;23;20014;-83
2023/09/04 01:34:08;;;;;;;8.10;5.35;;;;;;;18.19;100.00;97210.91;6214529;23;20000;-82
2023/09/04 01:36:36;;;;;;;7.83;5.53;;;;;;;17.89;100.00;97212.72;6189853;23;20437;-82
2023/09/04 01:39:03;;;;;;;7.93;5.83;;;;;;;18.19;100.00;97196.78;6189437;23;20008;-82
2023/09/04 01:41:29;;;;;;;7.47;5.60;;;;;;;18.30;100.00;97204.28;6213728;23;20611;-82
2023/09/04 01:43:55;;;;;;;8.00;5.20;;;;;;;18.09;100.00;97208.50;6189859;23;20027;-82
2023/09/04 01:46:22;;;;;;;8.73;5.90;;;;;;;18.21;100.00;97200.06;6189325;23;20009;-83
2023/09/04 01:48:51;;;;;;;7.17;5.07;;;;;;;18.35;100.00;97199.25;6189262;23;20015;-82
2023/09/04 01:51:16;;;;;;;7.70;5.37;;;;;;;18.24;100.00;97205.03;6213786;23;20081;-82
2023/09/04 01:53:42;;;;;;;8.13;5.30;;;;;;;18.32;100.00;97208.44;6216078;23;20004;-82
2023/09/04 01:56:08;;;;;;;7.70;5.50;;;;;;;18.11;100.00;97203.84;6215793;23;20004;-83
2023/09/04 01:58:34;;;;;;;8.33;5.27;;;;;;;18.11;100.00;97206.50;6190686;23;20000;-82
2023/09/04 02:00:59;;;;;;;8.93;5.70;;;;;;;18.06;100.00;97202.72;6191000;23;20008;-82
2023/09/04 02:03:25;;;;;;;7.20;4.97;;;;;;;18.17;100.00;97212.09;6193032;23;20007;-82
2023/09/04 02:05:50;;;;;;;12.03;5.67;;;;;;;18.08;100.00;97201.53;6219249;23;20010;-82
2023/09/04 02:08:16;;;;;;;7.00;4.87;;;;;;;18.06;100.00;97206.22;6218637;23;20008;-82
2023/09/04 02:10:42;;;;;;;8.23;5.47;;;;;;;17.93;100.00;97202.53;6192338;23;20011;-82
2023/09/04 02:13:08;;;;;;;8.53;5.83;;;;;;;17.87;100.00;97209.41;6193689;23;20004;-82
2023/09/04 02:15:35;;;;;;;13.40;6.00;;;;;;;18.02;100.00;97206.78;6193530;23;20111;-82
2023/09/04 02:18:02;;;;;;;9.30;5.90;;;;;;;17.94;100.00;97207.69;6193043;23;20011;-82
2023/09/04 02:20:29;;;;;;;8.63;6.03;;;;;;;17.81;100.00;97207.47;6194236;23;20008;-82
2023/09/04 02:22:54;;;;;;;11.30;5.70;;;;;;;17.73;100.00;97203.00;6193529;23;20083;-82
2023/09/04 02:25:20;;;;;;;7.93;5.40;;;;;;;17.80;100.00;97200.47;6193399;23;20056;-83
2023/09/04 02:27:55;;;;;;;7.63;5.10;;;;;;;17.75;100.00;97197.53;6217924;23;20007;-82
2023/09/04 02:30:21;;;;;;;10.60;5.97;;;;;;;17.69;100.00;97201.72;6192658;23;20073;-82
2023/09/04 02:32:47;;;;;;;9.30;5.63;;;;;;;17.65;100.00;97200.44;6188190;23;20004;-82
2023/09/04 02:35:13;;;;;;;6.73;5.27;;;;;;;17.86;100.00;97197.09;6218021;23;20333;-82
2023/09/04 02:37:40;;;;;;;8.73;4.77;;;;;;;17.97;100.00;97186.00;6192948;23;20050;-82
2023/09/04 02:40:07;;;;;;;7.70;5.87;;;;;;;17.95;100.00;97193.38;6193273;23;20015;-82
2023/09/04 02:42:33;;;;;;;9.50;5.60;;;;;;;17.92;100.00;97188.41;6192758;23;20070;-82
2023/09/04 02:44:58;;;;;;;11.60;5.93;;;;;;;17.51;100.00;97186.09;6193692;23;20012;-83
2023/09/04 02:47:24;;;;;;;7.93;6.03;;;;;;;17.46;100.00;97182.31;6194110;23;20042;-82
2023/09/04 02:49:56;;;;;;;7.53;5.97;;;;;;;17.43;100.00;97183.50;6193714;23;20357;-82
2023/09/04 02:52:22;;;;;;;8.30;5.93;;;;;;;17.49;100.00;97193.41;6243296;23;20094;-82
2023/09/04 02:54:52;;;;;;;54.80;36.07;;;;;;;17.75;100.00;97178.91;6193783;23;20034;-82
2023/09/04 02:57:17;;;;;;;11.57;8.83;;;;;;;17.64;100.00;97183.66;6193528;23;20019;-82
2023/09/04 02:59:43;;;;;;;11.00;7.27;;;;;;;17.57;100.00;97182.72;6193594;23;20436;-82
2023/09/04 03:02:08;;;;;;;7.73;6.00;;;;;;;17.65;100.00;97185.31;6192680;23;20475;-82
2023/09/04 03:04:34;;;;;;;8.23;6.40;;;;;;;17.75;100.00;97192.22;6189915;23;20000;-83
2023/09/04 03:07:01;;;;;;;9.63;5.90;;;;;;;17.36;100.00;97191.34;6189713;23;20008;-82
2023/09/04 03:09:27;;;;;;;9.67;6.37;;;;;;;17.41;100.00;97193.50;6189870;23;20460;-82
2023/09/04 03:11:53;;;;;;;11.83;6.23;;;;;;;17.44;100.00;97195.81;6189718;23;20010;-82
2023/09/04 03:14:18;;;;;;;9.83;5.97;;;;;;;17.38;100.00;97193.84;6215701;23;20053;-81
2023/09/04 03:16:44;;;;;;;8.33;5.87;;;;;;;17.26;100.00;97195.25;6190189;23;20479;-82
2023/09/04 03:19:10;;;;;;;8.47;6.40;;;;;;;17.26;100.00;97184.63;6190396;23;20314;-82
2023/09/04 03:21:36;;;;;;;8.13;5.80;;;;;;;17.16;100.00;97193.66;6189784;23;20009;-82
2023/09/04 03:24:02;;;;;;;8.07;6.30;;;;;;;17.49;100.00;97182.78;6214008;23;20348;-81
2023/09/04 03:26:27;;;;;;;12.13;6.60;;;;;;;17.49;100.00;97190.75;6189317;23;19997;-85
2023/09/04 03:29:04;;;;;;;8.47;6.27;;;;;;;17.22;100.00;97193.97;6190915;23;20004;-82
2023/09/04 03:31:29;;;;;;;8.73;6.20;;;;;;;17.14;100.00;97195.69;6215803;23;20009;-82
2023/09/04 03:33:55;;;;;;;8.53;5.80;;;;;;;17.33;100.00;97190.88;6216504;23;20017;-83
2023/09/04 03:36:22;;;;;;;8.90;6.03;;;;;;;17.35;100.00;97195.03;6190817;23;20290;-80
2023/09/04 03:38:47;;;;;;;10.27;6.53;;;;;;;17.35;100.00;97200.34;6215050;23;20012;-81
2023/09/04 03:41:13;;;;;;;10.77;5.83;;;;;;;17.22;100.00;97196.63;6191121;23;20012;-81
2023/09/04 03:43:39;;;;;;;10.03;6.70;;;;;;;17.10;100.00;97201.53;6192345;23;20012;-82
2023/09/04 03:46:10;;;;;;;7.73;5.90;;;;;;;17.36;100.00;97203.81;6191625;23;20012;-81
2023/09/04 03:48:36;;;;;;;9.97;6.40;;;;;;;17.31;100.00;97212.34;6190957;23;20012;-82
2023/09/04 03:51:02;;;;;;;8.33;6.10;;;;;;;17.20;100.00;97213.59;6190218;23;20447;-80
2023/09/04 03:53:27;;;;;;;8.50;6.03;;;;;;;17.12;100.00;97208.31;6226277;23;20377;-81
2023/09/04 03:55:53;;;;;;;10.10;7.47;;;;;;;17.06;100.00;97214.34;6244821;23;20000;-81
2023/09/04 03:58:18;;;;;;;10.40;6.30;;;;;;;17.06;100.00;97221.47;6191414;23;20498;-81
2023/09/04 04:00:44;;;;;;;10.53;6.77;;;;;;;17.04;100.00;97224.31;6195088;23;20035;-82
2023/09/04 04:03:09;;;;;;;11.10;7.70;;;;;;;17.16;100.00;97222.06;6191483;23;20015;-81
2023/09/04 04:05:38;;;;;;;9.03;6.87;;;;;;;16.91;100.00;97229.38;6190895;23;20434;-81
2023/09/04 04:08:03;;;;;;;10.93;6.63;;;;;;;16.94;100.00;97229.03;6215985;23;20502;-81
2023/09/04 04:10:29;;;;;;;9.47;6.87;;;;;;;16.96;100.00;97233.16;6190084;23;20039;-80
2023/09/04 04:12:55;;;;;;;11.23;7.23;;;;;;;16.92;100.00;97237.16;6215618;23;20000;-82
2023/09/04 04:15:21;;;;;;;9.57;6.47;;;;;;;16.90;100.00;97236.53;6214911;23;20492;-82
2023/09/04 04:17:47;;;;;;;8.63;6.90;;;;;;;16.90;100.00;97241.84;6190426;23;20004;-81
2023/09/04 04:20:15;;;;;;;9.07;6.70;;;;;;;17.16;100.00;97240.69;6215426;23;20004;-81
2023/09/04 04:22:41;;;;;;;9.00;6.07;;;;;;;17.19;100.00;97229.69;6189817;23;20011;-81
2023/09/04 04:25:07;;;;;;;9.57;6.80;;;;;;;17.02;100.00;97234.28;6191187;23;20144;-82
2023/09/04 04:27:33;;;;;;;8.70;6.60;;;;;;;17.15;100.00;97231.88;6214520;23;20004;-82
2023/09/04 04:29:58;;;;;;;9.83;6.83;;;;;;;17.11;100.00;97232.44;6190028;23;20058;-81
2023/09/04 04:32:30;;;;;;;9.27;6.53;;;;;;;17.16;100.00;97222.91;6189215;23;20066;-82
2023/09/04 04:34:56;;;;;;;8.90;6.70;;;;;;;17.16;100.00;97224.75;6188376;23;20004;-82
2023/09/04 04:37:22;;;;;;;9.13;6.27;;;;;;;17.09;100.00;97224.63;6190717;23;20030;-82
2023/09/04 04:39:48;;;;;;;8.77;6.47;;;;;;;17.28;100.00;97227.81;6190920;23;20755;-82
2023/09/04 04:42:13;;;;;;;10.30;6.70;;;;;;;17.16;100.00;97230.06;6190182;23;20012;-84
2023/09/04 04:44:39;;;;;;;10.07;7.13;;;;;;;17.00;100.00;97236.31;6215868;23;20035;-82
2023/09/04 04:47:06;;;;;;;10.00;6.97;;;;;;;17.23;100.00;97232.84;6190521;23;20058;-81
2023/09/04 04:49:32;;;;;;;8.77;6.90;;;;;;;17.44;100.00;97238.34;6190628;23;20008;-82
2023/09/04 04:51:59;;;;;;;9.00;6.83;;;;;;;17.56;100.00;97226.28;6190493;23;20008;-81
2023/09/04 04:54:24;;;;;;;9.73;6.07;;;;;;;17.65;100.00;97225.19;6190995;23;20012;-81
2023/09/04 04:56:52;;;;;;;10.00;6.87;;;;;;;17.46;100.00;97223.03;6215146;23;20014;-82
2023/09/04 04:59:18;;;;;;;9.07;6.33;;;;;;;17.56;100.00;97217.47;6190639;23;20062;-81
2023/09/04 05:01:45;;;;;;;9.97;7.17;;;;;;;17.72;100.00;97216.50;6190660;23;20344;-81
2023/09/04 05:04:11;;;;;;;10.47;6.80;;;;;;;17.71;100.00;97222.84;6190833;23;20428;-81
2023/09/04 05:06:37;;;;;;;9.83;7.80;;;;;;;17.64;100.00;97223.56;6189209;23;20089;-82
2023/09/04 05:09:03;;;;;;;9.40;6.60;;;;;;;17.86;100.00;97224.53;6189784;23;20004;-81
2023/09/04 05:11:30;;;;;;;10.57;7.40;;;;;;;17.72;100.00;97227.16;6189984;23;20145;-82
2023/09/04 05:13:56;;;;;;;9.37;7.33;;;;;;;17.72;100.00;97232.47;6215773;23;20389;-82
2023/09/04 05:16:22;;;;;;;10.27;6.53;;;;;;;17.89;100.00;97229.50;6216491;23;20004;-82
2023/09/04 05:18:48;;;;;;;8.07;6.50;;;;;;;17.76;100.00;97233.75;6219329;23;20027;-81
2023/09/04 05:21:14;;;;;;;10.10;7.00;;;;;;;17.79;100.00;97222.78;6190123;23;20011;-82
2023/09/04 05:23:39;;;;;;;12.23;7.60;;;;;;;17.76;100.00;97223.13;6190884;23;20000;-81
2023/09/04 05:26:05;;;;;;;10.20;7.00;;;;;;;18.20;100.00;97225.03;6190989;23;20008;-82
2023/09/04 05:28:32;;;;;;;11.17;6.73;;;;;;;18.72;100.00;97226.81;6192031;23;20028;-82
2023/09/04 05:31:04;;;;;;;9.47;7.17;;;;;;;18.83;100.00;97221.81;6190869;23;20015;-81
2023/09/04 05:33:33;;;;;;;8.80;7.20;;;;;;;19.18;100.00;97207.81;6190153;23;20095;-82
2023/09/04 05:36:00;;;;;;;9.47;6.33;;;;;;;19.29;100.00;97202.00;6243663;23;20012;-81
2023/09/04 05:38:26;;;;;;;9.53;6.97;;;;;;;19.38;100.00;97213.34;6192508;23;20084;-82
2023/09/04 05:40:55;;;;;;;12.93;7.38;;;;;;;19.49;100.00;97211.00;6216185;23;20047;-82
2023/09/04 05:43:22;;;;;;;8.77;6.47;;;;;;;19.92;100.00;97216.34;6192497;23;20000;-82
2023/09/04 05:45:49;;;;;;;8.55;6.28;;;;;;;19.59;100.00;97220.53;6193281;23;20087;-81
2023/09/04 05:48:14;;;;;;;8.37;5.70;;;;;;;19.67;100.00;97218.59;6218354;23;20015;-82
2023/09/04 05:50:40;;;;;;;7.78;5.80;;;;;;;20.31;100.00;97217.59;6218415;23;20004;-82
2023/09/04 05:53:05;;;;;;;8.80;5.18;;;;;;;20.46;100.00;97215.66;6193926;23;20094;-82
2023/09/04 05:55:35;;;;;;;8.90;5.20;;;;;;;19.42;100.00;97203.97;6198181;23;20063;-82
2023/09/04 05:58:01;;;;;;;7.60;5.32;;;;;;;19.98;100.00;97207.53;6196539;23;20004;-82
2023/09/04 06:00:29;;;;;;;6.50;4.70;;;;;;;19.84;100.00;97203.13;6191846;23;20014;-82
2023/09/04 06:02:54;;;;;;;9.15;5.38;;;;;;;19.81;100.00;97205.34;6191422;23;20357;-82
2023/09/04 06:05:21;;;;;;;6.90;5.10;;;;;;;20.11;100.00;97213.97;6191861;23;20033;-81
2023/09/04 06:07:47;;;;;;;7.55;5.38;;;;;;;19.95;100.00;97205.28;6190875;23;20008;-82
2023/09/04 06:10:12;;;;;;;9.68;5.45;;;;;;;20.36;100.00;97207.16;6191140;23;20000;-82
2023/09/04 06:12:38;;;;;;;9.77;5.75;;;;;;;20.63;100.00;97205.47;6191326;23;20015;-82
2023/09/04 06:15:04;;;;;;;9.77;5.78;;;;;;;20.62;100.00;97208.34;6191882;23;20012;-81
2023/09/04 06:17:31;;;;;;;7.32;5.20;;;;;;;20.89;100.00;97215.47;6191205;23;20077;-82
2023/09/04 06:19:56;;;;;;;8.85;5.65;;;;;;;21.04;100.00;97209.94;6216897;23;20011;-82
2023/09/04 06:22:22;;;;;;;7.05;5.75;;;;;;;20.76;100.00;97217.22;6217209;23;20007;-82
2023/09/04 06:24:48;;;;;;;9.07;6.35;;;;;;;20.48;100.00;97210.91;6218053;23;20420;-82
2023/09/04 06:27:14;;;;;;;6.80;4.55;;;;;;;21.02;100.00;97208.47;6192020;23;20006;-82
2023/09/04 06:29:40;;;;;;;12.48;5.93;;;;;;;21.38;100.00;97195.63;6193511;23;20391;-82
2023/09/04 06:32:06;;;;;;;6.80;5.40;;;;;;;21.91;100.00;97200.19;6190728;23;20031;-82
2023/09/04 06:34:31;;;;;;;6.78;4.70;;;;;;;22.11;100.00;97197.47;6195383;23;20344;-82
2023/09/04 06:36:57;;;;;;;6.38;4.70;;;;;;;22.19;100.00;97188.41;6192022;23;20011;-82
2023/09/04 06:39:22;;;;;;;6.97;4.40;;;;;;;22.22;100.00;97185.31;6189508;23;20004;-82
2023/09/04 06:41:49;;;;;;;7.65;4.68;;;;;;;22.57;100.00;97178.63;6189399;23;20000;-82
2023/09/04 06:44:17;;;;;;;8.55;4.65;;;;;;;22.81;100.00;97193.16;6190826;23;20011;-82
2023/09/04 06:46:43;;;;;;;6.18;4.57;;;;;;;23.02;100.00;97185.88;6190801;23;20003;-82
2023/09/04 06:49:09;;;;;;;9.18;4.65;;;;;;;23.32;100.00;97190.66;6190300;23;20019;-82
2023/09/04 06:51:42;;;;;;;8.15;4.63;;;;;;;23.73;100.00;97199.03;6190658;23;20424;-82
2023/09/04 06:54:07;;;;;;;9.13;5.00;;;;;;;23.61;100.00;97206.16;6215727;23;20015;-82
2023/09/04 06:56:33;;;;;;;7.28;4.40;;;;;;;23.53;100.00;97206.41;6215940;23;20000;-82
2023/09/04 06:58:59;;;;;;;7.40;4.57;;;;;;;23.14;100.00;97199.41;6190967;23;20420;-82
2023/09/04 07:01:24;;;;;;;10.18;4.65;;;;;;;24.35;100.00;97200.97;6215468;23;20379;-82
2023/09/04 07:03:50;;;;;;;7.68;4.57;;;;;;;25.38;100.00;97197.44;6189935;23;20000;-82
2023/09/04 07:06:15;;;;;;;6.20;4.00;;;;;;;24.75;100.00;97205.91;6215958;23;19992;-82
2023/09/04 07:08:41;;;;;;;7.25;4.28;;;;;;;25.39;100.00;97196.41;6215585;23;19996;-83
2023/09/04 07:11:07;;;;;;;5.95;4.32;;;;;;;24.68;100.00;97205.97;6214623;23;20000;-82
2023/09/04 07:13:33;;;;;;;6.55;4.40;;;;;;;24.78;100.00;97200.06;6190466;23;20083;-82
2023/09/04 07:15:58;;;;;;;7.72;3.95;;;;;;;25.21;100.00;97193.75;6215326;23;20050;-82
2023/09/04 07:18:24;;;;;;;5.10;3.88;;;;;;;25.08;100.00;97200.94;6191016;23;20552;-83
2023/09/04 07:20:50;;;;;;;6.95;4.25;;;;;;;24.53;100.00;97203.69;6189082;23;20004;-84
2023/09/04 07:23:15;;;;;;;6.15;3.80;;;;;;;25.87;100.00;97192.75;6191302;23;20058;-82
2023/09/04 07:25:41;;;;;;;5.63;3.67;;;;;;;25.03;100.00;97205.34;6190356;23;20082;-83
2023/09/04 07:28:06;;;;;;;5.57;3.40;;;;;;;25.61;100.00;97193.97;6189046;23;20015;-82
2023/09/04 07:30:32;;;;;;;9.68;4.28;;;;;;;26.27;100.00;97202.84;6190333;23;20008;-82
2023/09/04 07:32:57;;;;;;;6.63;3.97;;;;;;;26.48;100.00;97204.94;6188327;23;20099;-82
2023/09/04 07:35:23;;;;;;;7.75;3.65;;;;;;;27.08;97.18;97203.75;6189605;23;20433;-82
2023/09/04 07:37:49;;;;;;;8.30;3.85;;;;;;;26.76;97.72;97204.22;6191576;23;20395;-82
2023/09/04 07:40:14;;;;;;;5.13;3.28;;;;;;;28.29;84.83;97203.38;6191845;23;20007;-83
2023/09/04 07:42:42;;;;;;;6.57;3.25;;;;;;;28.78;80.90;97198.13;6189974;23;20436;-82
2023/09/04 07:45:08;;;;;;;5.88;3.50;;;;;;;27.72;87.77;97200.84;6190317;23;20054;-82
2023/09/04 07:47:34;;;;;;;4.90;3.15;;;;;;;28.79;81.78;97207.88;6241987;23;20058;-81
2023/09/04 07:49:59;;;;;;;6.10;3.83;;;;;;;27.47;89.21;97207.47;6219037;23;19996;-81
2023/09/04 07:52:25;;;;;;;5.70;3.60;;;;;;;28.48;87.37;97201.25;6215594;23;20360;-81
2023/09/04 07:55:08;;;;;;;6.20;3.60;;;;;;;27.67;87.73;97208.91;6214446;23;20054;-83
2023/09/04 07:57:34;;;;;;;5.20;3.50;;;;;;;29.17;76.13;97203.47;6189680;23;20325;-82
2023/09/04 08:00:00;;;;;;;5.03;3.22;;;;;;;29.22;76.84;97200.81;6189698;23;20049;-82
2023/09/04 08:02:25;;;;;;;4.53;2.60;;;;;;;29.79;71.65;97200.28;6189296;23;20433;-82
2023/09/04 08:05:02;;;;;;;7.20;3.28;;;;;;;29.88;67.59;97213.38;6189369;23;20054;-82
2023/09/04 08:07:28;;;;;;;5.40;3.08;;;;;;;29.03;74.80;97199.53;6189560;23;20011;-82
2023/09/04 08:09:55;;;;;;;4.88;2.65;;;;;;;29.34;73.68;97209.63;6188853;23;20429;-82
2023/09/04 08:12:20;;;;;;;4.70;3.08;;;;;;;29.56;68.50;97209.56;6188098;23;20007;-82
2023/09/04 08:14:47;;;;;;;5.30;3.28;;;;;;;29.92;68.03;97203.66;6188885;23;19996;-81
2023/09/04 08:17:13;;;;;;;5.72;3.42;;;;;;;29.54;67.63;97216.28;6189177;23;20039;-81
2023/09/04 08:19:39;;;;;;;5.40;2.88;;;;;;;30.64;62.74;97204.94;6192073;23;20336;-82
2023/09/04 08:22:04;;;;;;;4.50;2.67;;;;;;;29.74;63.22;97205.66;6243097;23;19996;-82
2023/09/04 08:24:30;;;;;;;4.68;2.75;;;;;;;28.79;70.21;97221.41;6215522;23;20004;-82
2023/09/04 08:26:55;;;;;;;5.53;2.88;;;;;;;29.69;65.56;97219.19;6214689;23;20008;-83
2023/09/04 08:29:21;;;;;;;9.85;3.17;;;;;;;30.10;63.54;97219.50;6190487;23;20004;-83
2023/09/04 08:31:46;;;;;;;5.07;2.80;;;;;;;30.49;60.57;97214.66;6215092;23;20030;-82
2023/09/04 08:34:12;;;;;;;4.63;2.88;;;;;;;29.07;66.07;97225.03;6215894;23;20023;-82
2023/09/04 08:36:38;;;;;;;5.40;3.38;;;;;;;30.20;61.77;97216.91;6190891;23;20000;-83
2023/09/04 08:39:04;;;;;;;4.70;3.30;;;;;;;30.40;65.26;97220.84;6190844;23;20012;-82
2023/09/04 08:41:30;;;;;;;5.00;2.90;;;;;;;29.70;63.93;97215.41;6214860;23;20337;-82
2023/09/04 08:43:56;;;;;;;5.75;2.80;;;;;;;29.98;62.63;97217.00;6215007;23;20004;-83
2023/09/04 08:46:22;;;;;;;4.43;3.08;;;;;;;31.35;56.39;97210.66;6190167;23;20066;-83
2023/09/04 08:48:50;;;;;;;6.20;3.00;;;;;;;30.41;60.07;97206.19;6215880;23;20405;-83
2023/09/04 08:51:16;;;;;;;5.00;3.20;;;;;;;28.60;64.21;97218.19;6189832;23;20016;-83
2023/09/04 08:53:43;;;;;;;5.88;2.88;;;;;;;29.60;65.86;97204.47;6190221;23;20399;-83
2023/09/04 08:56:09;;;;;;;4.68;2.70;;;;;;;30.86;57.91;97199.38;6190576;23;20054;-82
2023/09/04 08:58:37;;;;;;;4.72;2.72;;;;;;;29.56;59.18;97200.59;6215564;23;20004;-82
2023/09/04 09:01:03;;;;;;;3.83;2.33;;;;;;;29.81;61.29;97200.88;6214697;23;20067;-82
2023/09/04 09:03:30;;;;;;;4.38;2.45;;;;;;;30.43;58.44;97198.59;6192554;23;20426;-83
2023/09/04 09:05:57;;;;;;;4.88;2.75;;;;;;;29.62;58.54;97206.94;6192329;23;20000;-82
2023/09/04 09:08:23;;;;;;;7.00;2.88;;;;;;;30.89;55.72;97196.13;6196466;23;20004;-82
2023/09/04 09:10:49;;;;;;;3.30;2.40;;;;;;;31.43;52.02;97201.19;6191940;23;20008;-83
2023/09/04 09:13:16;;;;;;;4.05;2.35;;;;;;;29.04;56.47;97211.97;6216714;23;20055;-83
2023/09/04 09:15:42;;;;;;;4.93;2.63;;;;;;;29.61;53.14;97203.38;6216507;23;20000;-82
2023/09/04 09:18:08;;;;;;;6.55;3.28;;;;;;;31.23;51.27;97201.94;6217623;23;20115;-82
2023/09/04 09:20:34;;;;;;;4.95;2.80;;;;;;;30.79;52.26;97204.25;6191653;23;20035;-82
2023/09/04 09:23:06;;;;;;;4.15;2.67;;;;;;;30.91;51.34;97202.09;6192785;23;20004;-83
2023/09/04 09:25:33;;;;;;;5.00;2.90;;;;;;;30.29;50.88;97196.34;6192442;23;20429;-82
2023/09/04 09:28:00;;;;;;;6.07;2.80;;;;;;;31.28;48.41;97199.22;6191221;23;20030;-83
2023/09/04 09:30:31;;;;;;;4.43;2.70;;;;;;;32.04;46.83;97192.25;6192030;23;20008;-82
2023/09/04 09:32:58;;;;;;;3.85;2.65;;;;;;;31.99;47.46;97200.41;6217720;23;20070;-82
2023/09/04 09:35:23;;;;;;;6.03;2.72;;;;;;;30.54;48.99;97190.22;6192056;23;20012;-82
2023/09/04 09:37:53;;;;;;;4.07;2.53;;;;;;;31.41;47.05;97189.75;6193036;23;19996;-83
2023/09/04 09:40:20;;;;;;;4.72;2.72;;;;;;;31.22;47.48;97182.09;6218246;23;20007;-82
2023/09/04 09:42:46;;;;;;;4.50;2.75;;;;;;;31.08;49.15;97180.97;6218030;23;20325;-82
2023/09/04 09:45:12;;;;;;;5.03;2.67;;;;;;;32.65;46.62;97180.44;6191968;23;20003;-82
2023/09/04 09:47:37;;;;;;;4.18;2.67;;;;;;;31.92;46.46;97181.66;6193337;23;20097;-83
2023/09/04 09:50:04;;;;;;;4.05;2.80;;;;;;;31.80;46.65;97168.31;6244512;23;20479;-82
2023/09/04 09:52:29;;;;;;;7.05;2.60;;;;;;;31.94;46.71;97179.47;6192092;23;20054;-82
2023/09/04 09:54:56;;;;;;;3.97;2.53;;;;;;;32.21;46.34;97171.00;6216896;23;20364;-83
2023/09/04 09:57:26;;;;;;;4.20;2.55;;;;;;;30.90;48.22;97176.03;6191739;23;20399;-82
2023/09/04 09:59:52;;;;;;;4.20;2.85;;;;;;;31.36;46.97;97168.84;6191758;23;20008;-82
2023/09/04 10:02:29;;;;;;;4.05;2.53;;;;;;;30.58;47.76;97176.94;6190581;23;20034;-83
2023/09/04 10:04:55;;;;;;;4.85;2.95;;;;;;;31.85;46.23;97162.03;6192540;23;20000;-82
2023/09/04 10:07:27;;;;;;;4.15;2.80;;;;;;;30.99;47.58;97164.38;6192516;23;20062;-82
2023/09/04 10:09:59;;;;;;;;;;;;;;;30.95;48.92;97152.44;6217769;23;20008;-81
2023/09/04 10:12:42;;;;;;;4.93;2.83;;;;;;;31.62;46.88;97155.25;6190090;23;19907;-81
2023/09/04 10:15:10;;;;;;;5.68;2.97;;;;;;;30.88;48.76;97159.16;6191440;23;20011;-81
2023/09/04 10:17:45;;;;;;;4.03;2.70;;;;;;;30.63;49.44;97160.69;6217306;23;20333;-81
2023/09/04 10:20:13;;;;;;;3.85;2.60;;;;;;;30.96;49.55;97155.94;6190755;23;19996;-81
2023/09/04 10:22:45;;;;;;;4.55;2.83;;;;;;;31.33;47.56;97152.25;6216533;23;20007;-81
2023/09/04 10:25:51;;;;;;;3.80;2.60;;;;;;;31.10;47.65;97153.53;6192141;23;20407;-81
2023/09/04 10:28:33;;;;;;;4.60;2.40;;;;;;;31.84;47.37;97147.63;6243486;23;20372;-81
2023/09/04 10:31:00;;;;;;;3.70;2.17;;;;;;;32.16;44.60;97149.25;6192606;23;20008;-81
2023/09/04 10:33:26;;;;;;;4.43;2.17;;;;;;;31.93;45.58;97145.22;6191272;23;20004;-81
2023/09/04 10:35:57;;;;;;;3.30;2.40;;;;;;;32.42;44.23;97141.84;6191507;23;20004;-81
2023/09/04 10:38:23;;;;;;;4.07;2.53;;;;;;;33.02;43.77;97134.50;6191783;23;20028;-81
2023/09/04 10:40:49;;;;;;;3.45;2.58;;;;;;;32.34;44.23;97142.41;6191007;23;20012;-81
2023/09/04 10:43:15;;;;;;;4.45;2.63;;;;;;;33.10;44.27;97138.56;6215033;23;20066;-81
2023/09/04 10:45:40;;;;;;;5.80;2.75;;;;;;;31.24;46.72;97147.31;6191324;23;20027;-81
2023/09/04 10:48:06;;;;;;;5.95;2.90;;;;;;;31.33;50.31;97125.06;6190967;23;20000;-81
2023/09/04 10:50:37;;;;;;;4.43;2.60;;;;;;;31.84;46.26;97123.16;6190487;23;20035;-81
2023/09/04 10:53:08;;;;;;;5.20;2.70;;;;;;;32.03;45.37;97122.63;6216700;23;20012;-81
2023/09/04 10:55:38;;;;;;;4.15;2.70;;;;;;;30.38;49.72;97123.38;6242772;23;20008;-81
2023/09/04 10:58:06;;;;;;;4.57;3.10;;;;;;;31.14;47.41;97117.41;6191259;23;20043;-81
2023/09/04 11:00:37;;;;;;;4.63;2.80;;;;;;;31.23;47.65;97123.94;6190664;23;20012;-82
2023/09/04 11:03:19;;;;;;;5.15;2.88;;;;;;;30.15;47.58;97121.06;6190973;23;20012;-81
2023/09/04 11:06:03;;;;;;;5.55;3.13;;;;;;;29.87;47.95;97125.78;6190986;23;20000;-82
2023/09/04 11:08:30;;;;;;;5.47;2.60;;;;;;;30.36;46.51;97122.84;6191064;23;20447;-82
2023/09/04 11:11:04;;;;;;;5.78;3.05;;;;;;;30.67;48.25;97118.34;6191124;23;20004;-83
2023/09/04 11:13:32;;;;;;;4.43;2.80;;;;;;;30.44;47.63;97116.09;6190264;23;20000;-82
2023/09/04 11:16:02;;;;;;;4.45;2.53;;;;;;;29.90;47.11;97119.84;6215949;23;20023;-82
2023/09/04 11:18:32;;;;;;;5.20;2.70;;;;;;;30.85;43.51;97113.53;6191700;23;20012;-83
2023/09/04 11:20:59;;;;;;;3.83;2.42;;;;;;;31.09;43.23;97109.25;6190785;23;20023;-83
2023/09/04 11:23:26;;;;;;;3.97;2.60;;;;;;;30.82;43.43;97111.34;6191311;23;20012;-82
2023/09/04 11:25:52;;;;;;;7.53;2.72;;;;;;;31.11;44.44;97109.78;6216215;23;20027;-82
2023/09/04 11:28:22;;;;;;;3.97;2.78;;;;;;;31.43;43.05;97104.16;6190381;23;20011;-82